sensor_id;sensor_type;location;lat;lon;timestamp;P1;durP1;ratioP1;P2;durP2;ratioP2
59074;SDS011;44860;53.020;6.738;2022-11-15T00:01:29;27.77;;;22.50;;
59074;SDS011;44860;53.020;6.738;2022-11-15T00:03:54;29.40;;;22.95;;
59074;SDS011;44860;53.020;6.738;2022-11-15T00:06:20;28.95;;;22.42;;
59074;SDS011;44860;53.020;6.738;2022-11-15T00:08:46;25.60;;;21.63;;
59074;SDS011;44860;53.020;6.738;2022-11-15T00:11:11;27.85;;;22.42;;
59074;SDS011;44860;53.020;6.738;2022-11-15T00:13:38;28.85;;;22.63;;
59074;SDS011;44860;53.020;6.738;2022-11-15T00:16:04;28.55;;;22.48;;
59074;SDS011;44860;53.020;6.738;2022-11-15T00:18:30;26.70;;;22.08;;
59074;SDS011;44860;53.020;6.738;2022-11-15T00:20:56;27.35;;;23.23;;
59074;SDS011;44860;53.020;6.738;2022-11-15T00:23:29;31.85;;;23.23;;
59074;SDS011;44860;53.020;6.738;2022-11-15T00:25:55;31.15;;;23.27;;
59074;SDS011;44860;53.020;6.738;2022-11-15T00:28:24;29.40;;;23.23;;
59074;SDS011;44860;53.020;6.738;2022-11-15T00:30:50;30.73;;;23.30;;
59074;SDS011;44860;53.020;6.738;2022-11-15T00:33:16;27.08;;;22.33;;
59074;SDS011;44860;53.020;6.738;2022-11-15T00:35:42;30.05;;;22.30;;
59074;SDS011;44860;53.020;6.738;2022-11-15T00:38:07;27.10;;;22.73;;
59074;SDS011;44860;53.020;6.738;2022-11-15T00:40:33;29.15;;;23.38;;
59074;SDS011;44860;53.020;6.738;2022-11-15T00:42:59;28.30;;;22.55;;
59074;SDS011;44860;53.020;6.738;2022-11-15T00:45:25;26.70;;;21.92;;
59074;SDS011;44860;53.020;6.738;2022-11-15T00:47:51;26.27;;;21.40;;
59074;SDS011;44860;53.020;6.738;2022-11-15T00:50:17;28.45;;;22.20;;
59074;SDS011;44860;53.020;6.738;2022-11-15T00:52:43;26.67;;;21.98;;
59074;SDS011;44860;53.020;6.738;2022-11-15T00:55:13;25.98;;;21.50;;
59074;SDS011;44860;53.020;6.738;2022-11-15T00:57:40;28.50;;;22.38;;
59074;SDS011;44860;53.020;6.738;2022-11-15T01:00:06;27.75;;;22.85;;
59074;SDS011;44860;53.020;6.738;2022-11-15T01:02:32;27.65;;;22.48;;
59074;SDS011;44860;53.020;6.738;2022-11-15T01:04:59;30.15;;;22.48;;
59074;SDS011;44860;53.020;6.738;2022-11-15T01:07:24;29.92;;;22.58;;
59074;SDS011;44860;53.020;6.738;2022-11-15T01:09:50;30.90;;;22.80;;
59074;SDS011;44860;53.020;6.738;2022-11-15T01:12:16;29.98;;;22.10;;
59074;SDS011;44860;53.020;6.738;2022-11-15T01:14:41;28.95;;;23.25;;
59074;SDS011;44860;53.020;6.738;2022-11-15T01:17:07;30.35;;;23.33;;
59074;SDS011;44860;53.020;6.738;2022-11-15T01:19:32;32.35;;;23.25;;
59074;SDS011;44860;53.020;6.738;2022-11-15T01:21:58;30.95;;;22.98;;
59074;SDS011;44860;53.020;6.738;2022-11-15T01:24:24;29.70;;;22.52;;
59074;SDS011;44860;53.020;6.738;2022-11-15T01:26:49;29.98;;;22.10;;
59074;SDS011;44860;53.020;6.738;2022-11-15T01:29:15;31.55;;;22.67;;
59074;SDS011;44860;53.020;6.738;2022-11-15T01:31:41;30.33;;;22.00;;
59074;SDS011;44860;53.020;6.738;2022-11-15T01:34:06;30.52;;;22.30;;
59074;SDS011;44860;53.020;6.738;2022-11-15T01:36:32;34.58;;;23.02;;
59074;SDS011;44860;53.020;6.738;2022-11-15T01:38:58;30.60;;;22.38;;
59074;SDS011;44860;53.020;6.738;2022-11-15T01:41:25;30.80;;;22.38;;
59074;SDS011;44860;53.020;6.738;2022-11-15T01:43:54;34.95;;;22.55;;
59074;SDS011;44860;53.020;6.738;2022-11-15T01:48:46;32.22;;;21.85;;
59074;SDS011;44860;53.020;6.738;2022-11-15T01:51:13;33.50;;;22.20;;
59074;SDS011;44860;53.020;6.738;2022-11-15T01:53:42;31.77;;;21.98;;
59074;SDS011;44860;53.020;6.738;2022-11-15T01:56:11;29.23;;;21.23;;
59074;SDS011;44860;53.020;6.738;2022-11-15T01:58:41;31.15;;;22.63;;
59074;SDS011;44860;53.020;6.738;2022-11-15T02:01:08;31.73;;;21.67;;
59074;SDS011;44860;53.020;6.738;2022-11-15T02:03:43;35.33;;;22.88;;
59074;SDS011;44860;53.020;6.738;2022-11-15T02:06:13;34.45;;;22.90;;
59074;SDS011;44860;53.020;6.738;2022-11-15T02:08:40;35.83;;;22.67;;
59074;SDS011;44860;53.020;6.738;2022-11-15T02:11:09;30.75;;;22.13;;
59074;SDS011;44860;53.020;6.738;2022-11-15T02:13:35;33.17;;;23.10;;
59074;SDS011;44860;53.020;6.738;2022-11-15T02:16:05;33.20;;;22.90;;
59074;SDS011;44860;53.020;6.738;2022-11-15T02:18:56;34.42;;;21.98;;
59074;SDS011;44860;53.020;6.738;2022-11-15T02:26:48;34.15;;;23.17;;
59074;SDS011;44860;53.020;6.738;2022-11-15T02:40:52;33.25;;;22.00;;
59074;SDS011;44860;53.020;6.738;2022-11-15T02:49:29;31.67;;;22.10;;
59074;SDS011;44860;53.020;6.738;2022-11-15T02:51:57;34.63;;;21.90;;
59074;SDS011;44860;53.020;6.738;2022-11-15T02:54:24;31.83;;;21.75;;
59074;SDS011;44860;53.020;6.738;2022-11-15T02:56:54;34.63;;;22.98;;
59074;SDS011;44860;53.020;6.738;2022-11-15T03:04:38;34.05;;;22.65;;
59074;SDS011;44860;53.020;6.738;2022-11-15T03:07:15;35.97;;;23.13;;
59074;SDS011;44860;53.020;6.738;2022-11-15T03:12:38;36.53;;;23.35;;
59074;SDS011;44860;53.020;6.738;2022-11-15T03:18:04;36.78;;;23.55;;
59074;SDS011;44860;53.020;6.738;2022-11-15T03:20:33;43.78;;;24.95;;
59074;SDS011;44860;53.020;6.738;2022-11-15T03:23:02;34.70;;;22.42;;
59074;SDS011;44860;53.020;6.738;2022-11-15T03:25:30;43.67;;;26.15;;
59074;SDS011;44860;53.020;6.738;2022-11-15T03:28:00;46.97;;;25.60;;
59074;SDS011;44860;53.020;6.738;2022-11-15T03:30:30;43.97;;;26.52;;
59074;SDS011;44860;53.020;6.738;2022-11-15T03:32:59;51.58;;;26.92;;
59074;SDS011;44860;53.020;6.738;2022-11-15T03:35:30;47.95;;;25.95;;
59074;SDS011;44860;53.020;6.738;2022-11-15T03:40:39;56.60;;;28.30;;
59074;SDS011;44860;53.020;6.738;2022-11-15T03:46:00;51.42;;;26.33;;
59074;SDS011;44860;53.020;6.738;2022-11-15T03:48:51;54.22;;;27.30;;
59074;SDS011;44860;53.020;6.738;2022-11-15T03:51:17;53.80;;;27.50;;
59074;SDS011;44860;53.020;6.738;2022-11-15T03:53:43;50.60;;;28.65;;
59074;SDS011;44860;53.020;6.738;2022-11-15T03:56:10;53.88;;;29.45;;
59074;SDS011;44860;53.020;6.738;2022-11-15T03:58:35;50.88;;;28.55;;
59074;SDS011;44860;53.020;6.738;2022-11-15T04:01:01;54.28;;;28.67;;
59074;SDS011;44860;53.020;6.738;2022-11-15T04:03:27;54.17;;;28.58;;
59074;SDS011;44860;53.020;6.738;2022-11-15T04:05:52;49.80;;;28.88;;
59074;SDS011;44860;53.020;6.738;2022-11-15T04:08:18;53.38;;;29.00;;
59074;SDS011;44860;53.020;6.738;2022-11-15T04:10:43;52.83;;;29.08;;
59074;SDS011;44860;53.020;6.738;2022-11-15T04:13:09;47.33;;;27.40;;
59074;SDS011;44860;53.020;6.738;2022-11-15T04:15:35;50.78;;;28.55;;
59074;SDS011;44860;53.020;6.738;2022-11-15T04:18:00;57.75;;;30.95;;
59074;SDS011;44860;53.020;6.738;2022-11-15T04:20:27;52.53;;;29.33;;
59074;SDS011;44860;53.020;6.738;2022-11-15T04:23:14;56.85;;;31.08;;
59074;SDS011;44860;53.020;6.738;2022-11-15T04:26:01;56.95;;;31.27;;
59074;SDS011;44860;53.020;6.738;2022-11-15T04:28:29;57.30;;;30.98;;
59074;SDS011;44860;53.020;6.738;2022-11-15T04:30:55;58.28;;;31.98;;
59074;SDS011;44860;53.020;6.738;2022-11-15T04:33:21;58.88;;;32.50;;
59074;SDS011;44860;53.020;6.738;2022-11-15T04:35:47;58.97;;;33.28;;
59074;SDS011;44860;53.020;6.738;2022-11-15T04:38:33;60.03;;;33.40;;
59074;SDS011;44860;53.020;6.738;2022-11-15T04:40:59;66.10;;;34.88;;
59074;SDS011;44860;53.020;6.738;2022-11-15T04:43:25;62.58;;;33.47;;
59074;SDS011;44860;53.020;6.738;2022-11-15T04:45:51;60.35;;;33.92;;
59074;SDS011;44860;53.020;6.738;2022-11-15T04:48:16;63.30;;;34.28;;
59074;SDS011;44860;53.020;6.738;2022-11-15T04:50:42;67.60;;;35.78;;
59074;SDS011;44860;53.020;6.738;2022-11-15T04:53:08;61.78;;;34.15;;
59074;SDS011;44860;53.020;6.738;2022-11-15T04:55:33;66.50;;;35.38;;
59074;SDS011;44860;53.020;6.738;2022-11-15T04:58:00;63.65;;;34.97;;
59074;SDS011;44860;53.020;6.738;2022-11-15T05:00:26;74.65;;;36.58;;
59074;SDS011;44860;53.020;6.738;2022-11-15T05:02:53;70.45;;;37.40;;
59074;SDS011;44860;53.020;6.738;2022-11-15T05:05:37;72.05;;;36.30;;
59074;SDS011;44860;53.020;6.738;2022-11-15T05:08:03;86.18;;;38.67;;
59074;SDS011;44860;53.020;6.738;2022-11-15T05:10:29;75.15;;;37.60;;
59074;SDS011;44860;53.020;6.738;2022-11-15T05:12:55;69.88;;;37.72;;
59074;SDS011;44860;53.020;6.738;2022-11-15T05:15:20;80.70;;;38.92;;
59074;SDS011;44860;53.020;6.738;2022-11-15T05:17:46;71.38;;;37.95;;
59074;SDS011;44860;53.020;6.738;2022-11-15T05:20:12;80.85;;;39.03;;
59074;SDS011;44860;53.020;6.738;2022-11-15T05:22:38;85.03;;;39.53;;
59074;SDS011;44860;53.020;6.738;2022-11-15T05:25:04;80.50;;;40.28;;
59074;SDS011;44860;53.020;6.738;2022-11-15T05:27:30;80.60;;;39.63;;
59074;SDS011;44860;53.020;6.738;2022-11-15T05:29:55;83.18;;;41.97;;
59074;SDS011;44860;53.020;6.738;2022-11-15T05:32:21;81.03;;;40.45;;
59074;SDS011;44860;53.020;6.738;2022-11-15T05:34:47;77.72;;;38.88;;
59074;SDS011;44860;53.020;6.738;2022-11-15T05:37:13;77.30;;;38.78;;
59074;SDS011;44860;53.020;6.738;2022-11-15T05:39:39;75.97;;;39.15;;
59074;SDS011;44860;53.020;6.738;2022-11-15T05:42:14;77.68;;;41.22;;
59074;SDS011;44860;53.020;6.738;2022-11-15T05:44:41;80.38;;;40.95;;
59074;SDS011;44860;53.020;6.738;2022-11-15T05:47:13;85.82;;;42.13;;
59074;SDS011;44860;53.020;6.738;2022-11-15T05:49:46;79.13;;;41.75;;
59074;SDS011;44860;53.020;6.738;2022-11-15T05:52:14;82.47;;;41.13;;
59074;SDS011;44860;53.020;6.738;2022-11-15T05:54:44;89.65;;;43.55;;
59074;SDS011;44860;53.020;6.738;2022-11-15T05:57:10;82.90;;;42.70;;
59074;SDS011;44860;53.020;6.738;2022-11-15T05:59:36;78.22;;;41.38;;
59074;SDS011;44860;53.020;6.738;2022-11-15T06:02:02;79.97;;;40.15;;
59074;SDS011;44860;53.020;6.738;2022-11-15T06:04:28;73.03;;;40.30;;
59074;SDS011;44860;53.020;6.738;2022-11-15T06:06:53;75.68;;;41.10;;
59074;SDS011;44860;53.020;6.738;2022-11-15T06:09:19;78.13;;;41.30;;
59074;SDS011;44860;53.020;6.738;2022-11-15T06:11:45;70.80;;;40.00;;
59074;SDS011;44860;53.020;6.738;2022-11-15T06:14:10;69.90;;;38.10;;
59074;SDS011;44860;53.020;6.738;2022-11-15T06:16:36;78.72;;;41.42;;
59074;SDS011;44860;53.020;6.738;2022-11-15T06:19:02;75.07;;;39.47;;
59074;SDS011;44860;53.020;6.738;2022-11-15T06:21:27;69.38;;;39.00;;
59074;SDS011;44860;53.020;6.738;2022-11-15T06:23:54;68.85;;;39.63;;
59074;SDS011;44860;53.020;6.738;2022-11-15T06:26:21;71.88;;;38.38;;
59074;SDS011;44860;53.020;6.738;2022-11-15T06:28:46;69.50;;;37.13;;
59074;SDS011;44860;53.020;6.738;2022-11-15T06:31:12;69.35;;;37.63;;
59074;SDS011;44860;53.020;6.738;2022-11-15T06:33:38;68.63;;;38.17;;
59074;SDS011;44860;53.020;6.738;2022-11-15T06:36:05;72.20;;;38.35;;
59074;SDS011;44860;53.020;6.738;2022-11-15T06:38:32;65.55;;;37.90;;
59074;SDS011;44860;53.020;6.738;2022-11-15T06:41:02;67.82;;;37.22;;
59074;SDS011;44860;53.020;6.738;2022-11-15T06:43:28;63.78;;;36.13;;
59074;SDS011;44860;53.020;6.738;2022-11-15T06:45:54;63.83;;;36.92;;
59074;SDS011;44860;53.020;6.738;2022-11-15T06:48:19;67.95;;;36.35;;
59074;SDS011;44860;53.020;6.738;2022-11-15T06:50:51;64.70;;;35.45;;
59074;SDS011;44860;53.020;6.738;2022-11-15T06:53:18;59.40;;;35.38;;
59074;SDS011;44860;53.020;6.738;2022-11-15T06:55:44;65.95;;;36.10;;
59074;SDS011;44860;53.020;6.738;2022-11-15T06:58:09;61.20;;;35.42;;
59074;SDS011;44860;53.020;6.738;2022-11-15T07:00:35;62.08;;;34.97;;
59074;SDS011;44860;53.020;6.738;2022-11-15T07:03:01;57.42;;;33.90;;
59074;SDS011;44860;53.020;6.738;2022-11-15T07:05:27;59.92;;;34.17;;
59074;SDS011;44860;53.020;6.738;2022-11-15T07:07:53;57.53;;;33.70;;
59074;SDS011;44860;53.020;6.738;2022-11-15T07:10:19;57.38;;;33.33;;
59074;SDS011;44860;53.020;6.738;2022-11-15T07:12:47;54.50;;;33.03;;
59074;SDS011;44860;53.020;6.738;2022-11-15T07:15:14;59.08;;;33.63;;
59074;SDS011;44860;53.020;6.738;2022-11-15T07:17:40;55.10;;;31.92;;
59074;SDS011;44860;53.020;6.738;2022-11-15T07:20:06;52.47;;;31.90;;
59074;SDS011;44860;53.020;6.738;2022-11-15T07:22:32;49.67;;;31.65;;
59074;SDS011;44860;53.020;6.738;2022-11-15T07:24:58;56.95;;;32.13;;
59074;SDS011;44860;53.020;6.738;2022-11-15T07:27:23;48.75;;;31.00;;
59074;SDS011;44860;53.020;6.738;2022-11-15T07:29:49;47.95;;;30.85;;
59074;SDS011;44860;53.020;6.738;2022-11-15T07:32:14;49.60;;;30.75;;
59074;SDS011;44860;53.020;6.738;2022-11-15T07:34:40;47.53;;;28.80;;
59074;SDS011;44860;53.020;6.738;2022-11-15T07:37:06;48.40;;;28.83;;
59074;SDS011;44860;53.020;6.738;2022-11-15T07:39:32;45.38;;;29.67;;
59074;SDS011;44860;53.020;6.738;2022-11-15T07:41:58;43.38;;;28.35;;
59074;SDS011;44860;53.020;6.738;2022-11-15T07:44:43;44.72;;;28.05;;
59074;SDS011;44860;53.020;6.738;2022-11-15T07:47:08;44.63;;;28.52;;
59074;SDS011;44860;53.020;6.738;2022-11-15T07:49:34;40.08;;;27.40;;
59074;SDS011;44860;53.020;6.738;2022-11-15T07:52:00;41.00;;;27.23;;
59074;SDS011;44860;53.020;6.738;2022-11-15T07:54:25;40.00;;;27.65;;
59074;SDS011;44860;53.020;6.738;2022-11-15T07:56:51;38.80;;;27.52;;
59074;SDS011;44860;53.020;6.738;2022-11-15T07:59:17;39.33;;;26.90;;
59074;SDS011;44860;53.020;6.738;2022-11-15T08:01:42;39.20;;;26.52;;
59074;SDS011;44860;53.020;6.738;2022-11-15T08:04:09;37.55;;;26.58;;
59074;SDS011;44860;53.020;6.738;2022-11-15T08:06:36;43.20;;;26.63;;
59074;SDS011;44860;53.020;6.738;2022-11-15T08:09:02;40.00;;;26.65;;
59074;SDS011;44860;53.020;6.738;2022-11-15T08:11:28;34.60;;;25.90;;
59074;SDS011;44860;53.020;6.738;2022-11-15T08:13:53;37.83;;;25.65;;
59074;SDS011;44860;53.020;6.738;2022-11-15T08:16:19;35.88;;;26.00;;
59074;SDS011;44860;53.020;6.738;2022-11-15T08:18:45;34.80;;;25.30;;
59074;SDS011;44860;53.020;6.738;2022-11-15T08:21:12;35.17;;;26.15;;
59074;SDS011;44860;53.020;6.738;2022-11-15T08:23:42;35.20;;;25.25;;
59074;SDS011;44860;53.020;6.738;2022-11-15T08:26:08;34.03;;;25.42;;
59074;SDS011;44860;53.020;6.738;2022-11-15T08:28:34;32.80;;;25.13;;
59074;SDS011;44860;53.020;6.738;2022-11-15T08:31:00;34.45;;;25.88;;
59074;SDS011;44860;53.020;6.738;2022-11-15T08:33:26;39.42;;;25.90;;
59074;SDS011;44860;53.020;6.738;2022-11-15T08:35:55;35.95;;;26.38;;
59074;SDS011;44860;53.020;6.738;2022-11-15T08:38:22;35.45;;;25.50;;
59074;SDS011;44860;53.020;6.738;2022-11-15T08:40:47;34.50;;;25.25;;
59074;SDS011;44860;53.020;6.738;2022-11-15T08:43:13;34.15;;;24.83;;
59074;SDS011;44860;53.020;6.738;2022-11-15T08:45:39;35.65;;;24.98;;
59074;SDS011;44860;53.020;6.738;2022-11-15T08:48:05;33.15;;;25.52;;
59074;SDS011;44860;53.020;6.738;2022-11-15T08:50:30;35.08;;;25.63;;
59074;SDS011;44860;53.020;6.738;2022-11-15T08:52:56;36.00;;;25.70;;
59074;SDS011;44860;53.020;6.738;2022-11-15T08:55:22;32.05;;;23.98;;
59074;SDS011;44860;53.020;6.738;2022-11-15T08:57:48;33.13;;;24.83;;
59074;SDS011;44860;53.020;6.738;2022-11-15T09:00:14;35.97;;;25.80;;
59074;SDS011;44860;53.020;6.738;2022-11-15T09:02:40;32.17;;;24.73;;
59074;SDS011;44860;53.020;6.738;2022-11-15T09:05:06;32.35;;;25.17;;
59074;SDS011;44860;53.020;6.738;2022-11-15T09:07:32;32.40;;;24.65;;
59074;SDS011;44860;53.020;6.738;2022-11-15T09:09:58;35.05;;;25.00;;
59074;SDS011;44860;53.020;6.738;2022-11-15T09:12:23;29.98;;;24.40;;
59074;SDS011;44860;53.020;6.738;2022-11-15T09:14:49;37.25;;;26.13;;
59074;SDS011;44860;53.020;6.738;2022-11-15T09:17:15;31.63;;;24.40;;
59074;SDS011;44860;53.020;6.738;2022-11-15T09:19:41;37.47;;;25.27;;
59074;SDS011;44860;53.020;6.738;2022-11-15T09:22:07;31.77;;;24.75;;
59074;SDS011;44860;53.020;6.738;2022-11-15T09:24:33;35.65;;;25.33;;
59074;SDS011;44860;53.020;6.738;2022-11-15T09:26:59;34.78;;;24.55;;
59074;SDS011;44860;53.020;6.738;2022-11-15T09:29:25;33.38;;;24.98;;
59074;SDS011;44860;53.020;6.738;2022-11-15T09:31:54;31.98;;;24.15;;
59074;SDS011;44860;53.020;6.738;2022-11-15T09:34:19;30.50;;;24.67;;
59074;SDS011;44860;53.020;6.738;2022-11-15T09:36:46;37.72;;;25.30;;
59074;SDS011;44860;53.020;6.738;2022-11-15T09:39:11;31.75;;;24.95;;
59074;SDS011;44860;53.020;6.738;2022-11-15T09:47:38;32.95;;;25.27;;
59074;SDS011;44860;53.020;6.738;2022-11-15T09:53:13;29.80;;;23.75;;
59074;SDS011;44860;53.020;6.738;2022-11-15T09:55:51;29.38;;;23.35;;
59074;SDS011;44860;53.020;6.738;2022-11-15T09:58:35;30.00;;;23.77;;
59074;SDS011;44860;53.020;6.738;2022-11-15T10:01:08;31.40;;;24.25;;
59074;SDS011;44860;53.020;6.738;2022-11-15T10:03:42;30.50;;;23.77;;
59074;SDS011;44860;53.020;6.738;2022-11-15T10:06:14;34.97;;;23.90;;
59074;SDS011;44860;53.020;6.738;2022-11-15T10:08:59;31.70;;;24.05;;
59074;SDS011;44860;53.020;6.738;2022-11-15T10:11:33;30.33;;;23.42;;
59074;SDS011;44860;53.020;6.738;2022-11-15T10:14:02;26.73;;;23.08;;
59074;SDS011;44860;53.020;6.738;2022-11-15T10:16:49;29.48;;;22.88;;
59074;SDS011;44860;53.020;6.738;2022-11-15T10:22:12;31.77;;;25.13;;
59074;SDS011;44860;53.020;6.738;2022-11-15T10:24:41;31.33;;;24.80;;
59074;SDS011;44860;53.020;6.738;2022-11-15T10:27:12;29.65;;;25.25;;
59074;SDS011;44860;53.020;6.738;2022-11-15T10:29:47;30.98;;;24.90;;
59074;SDS011;44860;53.020;6.738;2022-11-15T10:32:15;29.58;;;24.48;;
59074;SDS011;44860;53.020;6.738;2022-11-15T10:34:42;31.48;;;24.77;;
59074;SDS011;44860;53.020;6.738;2022-11-15T10:37:09;35.92;;;26.38;;
59074;SDS011;44860;53.020;6.738;2022-11-15T10:39:34;32.10;;;25.73;;
59074;SDS011;44860;53.020;6.738;2022-11-15T10:42:16;32.55;;;27.05;;
59074;SDS011;44860;53.020;6.738;2022-11-15T10:44:50;33.55;;;27.67;;
59074;SDS011;44860;53.020;6.738;2022-11-15T10:47:23;30.00;;;26.17;;
59074;SDS011;44860;53.020;6.738;2022-11-15T10:52:26;32.38;;;27.25;;
59074;SDS011;44860;53.020;6.738;2022-11-15T10:57:28;33.63;;;26.98;;
59074;SDS011;44860;53.020;6.738;2022-11-15T11:00:06;31.77;;;25.83;;
59074;SDS011;44860;53.020;6.738;2022-11-15T11:08:43;31.13;;;26.08;;
59074;SDS011;44860;53.020;6.738;2022-11-15T11:10:57;28.30;;;25.17;;
59074;SDS011;44860;53.020;6.738;2022-11-15T11:13:33;28.65;;;24.73;;
59074;SDS011;44860;53.020;6.738;2022-11-15T11:24:30;24.92;;;21.55;;
59074;SDS011;44860;53.020;6.738;2022-11-15T11:27:18;21.52;;;19.00;;
59074;SDS011;44860;53.020;6.738;2022-11-15T11:30:29;20.48;;;18.27;;
59074;SDS011;44860;53.020;6.738;2022-11-15T11:33:20;20.70;;;16.98;;
59074;SDS011;44860;53.020;6.738;2022-11-15T11:46:56;13.30;;;11.18;;
59074;SDS011;44860;53.020;6.738;2022-11-15T11:49:44;12.75;;;10.48;;
59074;SDS011;44860;53.020;6.738;2022-11-15T11:52:25;12.60;;;10.18;;
59074;SDS011;44860;53.020;6.738;2022-11-15T11:55:14;13.98;;;10.07;;
59074;SDS011;44860;53.020;6.738;2022-11-15T11:58:12;15.57;;;8.93;;
59074;SDS011;44860;53.020;6.738;2022-11-15T12:03:48;12.73;;;8.30;;
59074;SDS011;44860;53.020;6.738;2022-11-15T12:06:38;11.32;;;7.60;;
59074;SDS011;44860;53.020;6.738;2022-11-15T12:09:31;10.07;;;7.50;;
59074;SDS011;44860;53.020;6.738;2022-11-15T12:12:11;11.00;;;7.40;;
59074;SDS011;44860;53.020;6.738;2022-11-15T12:14:42;9.13;;;7.40;;
59074;SDS011;44860;53.020;6.738;2022-11-15T12:17:09;10.45;;;6.50;;
59074;SDS011;44860;53.020;6.738;2022-11-15T12:19:36;11.93;;;7.05;;
59074;SDS011;44860;53.020;6.738;2022-11-15T12:24:54;9.98;;;6.45;;
59074;SDS011;44860;53.020;6.738;2022-11-15T12:30:02;9.70;;;6.70;;
59074;SDS011;44860;53.020;6.738;2022-11-15T12:32:39;10.55;;;7.15;;
59074;SDS011;44860;53.020;6.738;2022-11-15T12:35:33;10.27;;;6.78;;
59074;SDS011;44860;53.020;6.738;2022-11-15T12:38:00;10.00;;;6.60;;
59074;SDS011;44860;53.020;6.738;2022-11-15T12:45:32;11.48;;;6.40;;
59074;SDS011;44860;53.020;6.738;2022-11-15T12:56:23;9.57;;;6.50;;
59074;SDS011;44860;53.020;6.738;2022-11-15T12:58:55;9.55;;;6.55;;
59074;SDS011;44860;53.020;6.738;2022-11-15T13:01:52;8.55;;;5.97;;
59074;SDS011;44860;53.020;6.738;2022-11-15T13:12:01;10.20;;;5.68;;
59074;SDS011;44860;53.020;6.738;2022-11-15T13:15:45;5.88;;;4.95;;
59074;SDS011;44860;53.020;6.738;2022-11-15T13:17:45;7.75;;;4.82;;
59074;SDS011;44860;53.020;6.738;2022-11-15T13:22:45;8.00;;;4.60;;
59074;SDS011;44860;53.020;6.738;2022-11-15T13:30:52;8.52;;;4.47;;
59074;SDS011;44860;53.020;6.738;2022-11-15T13:33:23;7.05;;;4.30;;
59074;SDS011;44860;53.020;6.738;2022-11-15T13:36:07;7.07;;;4.05;;
59074;SDS011;44860;53.020;6.738;2022-11-15T13:38:43;6.50;;;3.60;;
59074;SDS011;44860;53.020;6.738;2022-11-15T13:41:22;6.30;;;4.10;;
59074;SDS011;44860;53.020;6.738;2022-11-15T13:43:50;7.53;;;4.20;;
59074;SDS011;44860;53.020;6.738;2022-11-15T13:46:24;7.25;;;4.00;;
59074;SDS011;44860;53.020;6.738;2022-11-15T13:48:57;6.43;;;3.88;;
59074;SDS011;44860;53.020;6.738;2022-11-15T13:59:57;7.32;;;3.30;;
59074;SDS011;44860;53.020;6.738;2022-11-15T14:02:29;8.00;;;3.60;;
59074;SDS011;44860;53.020;6.738;2022-11-15T14:07:25;7.18;;;3.75;;
59074;SDS011;44860;53.020;6.738;2022-11-15T14:09:53;8.23;;;3.40;;
59074;SDS011;44860;53.020;6.738;2022-11-15T14:12:49;7.72;;;3.05;;
59074;SDS011;44860;53.020;6.738;2022-11-15T14:15:23;5.93;;;3.42;;
59074;SDS011;44860;53.020;6.738;2022-11-15T14:17:53;5.30;;;3.40;;
59074;SDS011;44860;53.020;6.738;2022-11-15T14:22:54;6.80;;;3.80;;
59074;SDS011;44860;53.020;6.738;2022-11-15T14:25:22;6.20;;;3.35;;
59074;SDS011;44860;53.020;6.738;2022-11-15T14:30:36;7.78;;;3.55;;
59074;SDS011;44860;53.020;6.738;2022-11-15T14:33:13;6.35;;;3.45;;
59074;SDS011;44860;53.020;6.738;2022-11-15T14:36:16;5.38;;;3.20;;
59074;SDS011;44860;53.020;6.738;2022-11-15T14:38:43;4.97;;;3.50;;
59074;SDS011;44860;53.020;6.738;2022-11-15T14:41:24;7.60;;;3.40;;
59074;SDS011;44860;53.020;6.738;2022-11-15T14:43:52;11.40;;;3.38;;
59074;SDS011;44860;53.020;6.738;2022-11-15T14:46:18;10.40;;;4.07;;
59074;SDS011;44860;53.020;6.738;2022-11-15T14:48:44;4.93;;;3.60;;
59074;SDS011;44860;53.020;6.738;2022-11-15T14:51:14;4.70;;;3.50;;
59074;SDS011;44860;53.020;6.738;2022-11-15T14:53:41;5.30;;;3.63;;
59074;SDS011;44860;53.020;6.738;2022-11-15T14:56:08;6.57;;;3.63;;
59074;SDS011;44860;53.020;6.738;2022-11-15T14:58:34;8.88;;;6.95;;
59074;SDS011;44860;53.020;6.738;2022-11-15T15:01:01;8.10;;;5.60;;
59074;SDS011;44860;53.020;6.738;2022-11-15T15:03:34;6.35;;;3.80;;
59074;SDS011;44860;53.020;6.738;2022-11-15T15:06:00;8.15;;;4.50;;
59074;SDS011;44860;53.020;6.738;2022-11-15T15:08:25;4.80;;;3.95;;
59074;SDS011;44860;53.020;6.738;2022-11-15T15:10:51;5.95;;;3.95;;
59074;SDS011;44860;53.020;6.738;2022-11-15T15:13:21;6.07;;;4.20;;
59074;SDS011;44860;53.020;6.738;2022-11-15T15:15:48;5.45;;;4.38;;
59074;SDS011;44860;53.020;6.738;2022-11-15T15:18:14;7.35;;;4.80;;
59074;SDS011;44860;53.020;6.738;2022-11-15T15:20:41;5.28;;;4.78;;
59074;SDS011;44860;53.020;6.738;2022-11-15T15:23:15;5.85;;;4.90;;
59074;SDS011;44860;53.020;6.738;2022-11-15T15:25:42;7.28;;;4.80;;
59074;SDS011;44860;53.020;6.738;2022-11-15T15:28:10;6.30;;;4.95;;
59074;SDS011;44860;53.020;6.738;2022-11-15T15:30:36;6.40;;;5.57;;
59074;SDS011;44860;53.020;6.738;2022-11-15T15:33:01;7.15;;;5.57;;
59074;SDS011;44860;53.020;6.738;2022-11-15T15:35:29;6.35;;;5.30;;
59074;SDS011;44860;53.020;6.738;2022-11-15T15:37:57;5.95;;;5.35;;
59074;SDS011;44860;53.020;6.738;2022-11-15T15:40:24;7.65;;;5.60;;
59074;SDS011;44860;53.020;6.738;2022-11-15T15:42:50;7.05;;;5.40;;
59074;SDS011;44860;53.020;6.738;2022-11-15T15:45:16;8.82;;;6.97;;
59074;SDS011;44860;53.020;6.738;2022-11-15T15:47:43;12.95;;;10.40;;
59074;SDS011;44860;53.020;6.738;2022-11-15T15:50:28;14.90;;;13.40;;
59074;SDS011;44860;53.020;6.738;2022-11-15T15:52:59;20.63;;;18.23;;
59074;SDS011;44860;53.020;6.738;2022-11-15T15:55:26;20.00;;;17.90;;
59074;SDS011;44860;53.020;6.738;2022-11-15T15:57:52;20.98;;;18.75;;
59074;SDS011;44860;53.020;6.738;2022-11-15T16:00:18;29.92;;;26.98;;
59074;SDS011;44860;53.020;6.738;2022-11-15T16:02:45;17.65;;;16.10;;
59074;SDS011;44860;53.020;6.738;2022-11-15T16:05:11;11.88;;;10.77;;
59074;SDS011;44860;53.020;6.738;2022-11-15T16:07:37;11.40;;;10.30;;
59074;SDS011;44860;53.020;6.738;2022-11-15T16:10:16;10.27;;;9.13;;
59074;SDS011;44860;53.020;6.738;2022-11-15T16:12:44;9.05;;;8.15;;
59074;SDS011;44860;53.020;6.738;2022-11-15T16:15:10;9.10;;;8.23;;
59074;SDS011;44860;53.020;6.738;2022-11-15T16:17:37;9.05;;;8.25;;
59074;SDS011;44860;53.020;6.738;2022-11-15T16:20:06;8.43;;;7.63;;
59074;SDS011;44860;53.020;6.738;2022-11-15T16:22:34;10.95;;;9.85;;
59074;SDS011;44860;53.020;6.738;2022-11-15T16:24:59;11.05;;;9.93;;
59074;SDS011;44860;53.020;6.738;2022-11-15T16:27:25;11.27;;;8.40;;
59074;SDS011;44860;53.020;6.738;2022-11-15T16:29:51;8.93;;;8.02;;
59074;SDS011;44860;53.020;6.738;2022-11-15T16:32:16;8.63;;;6.18;;
59074;SDS011;44860;53.020;6.738;2022-11-15T16:34:42;10.00;;;5.68;;
59074;SDS011;44860;53.020;6.738;2022-11-15T16:37:12;6.50;;;5.35;;
59074;SDS011;44860;53.020;6.738;2022-11-15T16:39:48;7.60;;;5.35;;
59074;SDS011;44860;53.020;6.738;2022-11-15T16:42:13;7.00;;;5.13;;
59074;SDS011;44860;53.020;6.738;2022-11-15T16:44:39;7.70;;;4.63;;
59074;SDS011;44860;53.020;6.738;2022-11-15T16:47:05;7.43;;;4.60;;
59074;SDS011;44860;53.020;6.738;2022-11-15T16:49:36;5.95;;;4.07;;
59074;SDS011;44860;53.020;6.738;2022-11-15T16:52:02;5.90;;;3.83;;
59074;SDS011;44860;53.020;6.738;2022-11-15T16:54:27;6.75;;;4.25;;
59074;SDS011;44860;53.020;6.738;2022-11-15T16:56:53;4.80;;;3.90;;
59074;SDS011;44860;53.020;6.738;2022-11-15T16:59:19;5.90;;;3.50;;